Time;durP1;ratioP1;P1;durP2;ratioP2;P2;SDS_P1;SDS_P2;PMS_P1;PMS_P2;Temp;Humidity;BMP_temperature;BMP_pressure;BME280_temperature;BME280_humidity;BME280_pressure;Samples;Min_cycle;Max_cycle;Signal;HPM_P1;HPM_P2
2021/06/07 00:00:57;;;;;;;72.87;45.47;;;15.50;91.40;;;;;;5052272;28;20180;-86
2021/06/07 00:03:23;;;;;;;93.87;49.37;;;15.40;91.60;;;;;;5053290;28;20303;-86
2021/06/07 00:05:48;;;;;;;95.20;49.83;;;15.50;91.50;;;;;;5052149;28;20219;-86
2021/06/07 00:08:14;;;;;;;96.33;51.70;;;15.40;91.60;;;;;;5053513;28;20222;-86
2021/06/07 00:10:40;;;;;;;97.47;48.97;;;15.30;91.70;;;;;;5052088;28;20176;-86
2021/06/07 00:13:06;;;;;;;94.00;49.63;;;15.40;91.70;;;;;;5052038;28;20257;-86
2021/06/07 00:15:34;;;;;;;93.60;49.63;;;15.50;91.60;;;;;;5053348;28;20651;-86
2021/06/07 00:18:01;;;;;;;84.07;46.45;;;15.40;91.60;;;;;;5052576;28;20175;-85
2021/06/07 00:20:39;;;;;;;88.53;47.27;;;15.50;91.60;;;;;;5053152;28;20168;-86
2021/06/07 00:23:07;;;;;;;89.47;49.67;;;15.50;91.50;;;;;;5051970;28;20226;-85
2021/06/07 00:25:33;;;;;;;104.57;53.30;;;15.40;91.70;;;;;;5051933;28;20172;-85
2021/06/07 00:27:59;;;;;;;103.93;51.90;;;15.40;91.90;;;;;;5051722;28;20207;-85
2021/06/07 00:30:25;;;;;;;101.30;50.50;;;15.30;92.10;;;;;;5053135;28;20639;-85
2021/06/07 00:32:51;;;;;;;90.50;49.17;;;15.40;92.20;;;;;;5051806;28;20537;-85
2021/06/07 00:35:22;;;;;;;101.97;50.47;;;15.40;92.10;;;;;;5053054;28;20176;-86
2021/06/07 00:37:48;;;;;;;95.63;52.77;;;15.30;92.20;;;;;;5052977;28;20168;-86
2021/06/07 00:40:15;;;;;;;88.03;51.13;;;15.40;92.20;;;;;;5052968;28;20168;-85
2021/06/07 00:42:41;;;;;;;125.77;56.30;;;15.50;92.20;;;;;;5052348;28;20199;-84
2021/06/07 00:45:11;;;;;;;100.27;53.47;;;15.30;92.20;;;;;;5051726;28;20172;-84
2021/06/07 00:47:38;;;;;;;116.37;55.03;;;15.30;92.30;;;;;;5052838;28;20706;-85
2021/06/07 00:50:10;;;;;;;105.37;58.30;;;15.40;92.40;;;;;;5051623;28;20168;-84
2021/06/07 00:52:36;;;;;;;119.83;59.17;;;15.40;92.40;;;;;;5051609;28;20290;-84
2021/06/07 00:55:04;;;;;;;108.83;55.43;;;15.40;92.50;;;;;;5051571;28;20172;-84
2021/06/07 00:57:30;;;;;;;113.37;57.70;;;15.30;92.50;;;;;;5052817;28;20739;-84
2021/06/07 00:59:56;;;;;;;92.00;52.40;;;15.30;92.60;;;;;;5051521;28;20175;-84
2021/06/07 01:02:21;;;;;;;102.43;53.53;;;15.40;92.70;;;;;;5052680;28;20216;-85
2021/06/07 01:04:47;;;;;;;86.18;52.38;;;15.40;92.60;;;;;;5051478;28;20172;-85
2021/06/07 01:07:13;;;;;;;100.97;52.67;;;15.30;92.60;;;;;;5052789;28;20580;-85
2021/06/07 01:09:39;;;;;;;90.53;50.10;;;15.40;92.60;;;;;;5051378;28;20249;-85
2021/06/07 01:12:05;;;;;;;102.60;53.80;;;15.30;92.60;;;;;;5052618;28;20272;-84
2021/06/07 01:14:31;;;;;;;92.20;50.80;;;15.40;92.70;;;;;;5051487;28;20180;-85
2021/06/07 01:16:56;;;;;;;106.07;51.30;;;15.30;92.60;;;;;;5052630;28;20570;-84
2021/06/07 01:19:23;;;;;;;89.73;50.27;;;15.40;92.70;;;;;;5051436;28;20270;-84
2021/06/07 01:21:49;;;;;;;99.93;53.00;;;15.50;92.60;;;;;;5051292;28;20263;-84
2021/06/07 01:24:15;;;;;;;90.93;49.93;;;15.30;92.50;;;;;;5052539;28;20609;-84
2021/06/07 01:26:40;;;;;;;96.80;50.13;;;15.40;92.70;;;;;;5052637;28;20180;-84
2021/06/07 01:29:06;;;;;;;95.60;50.93;;;15.40;92.50;;;;;;5052442;28;20574;-84
2021/06/07 01:31:32;;;;;;;106.20;51.53;;;15.40;92.60;;;;;;5054612;28;20207;-84
2021/06/07 01:33:58;;;;;;;93.38;52.03;;;15.40;92.60;;;;;;5054959;28;20187;-84
2021/06/07 01:36:24;;;;;;;98.40;51.53;;;15.40;92.60;;;;;;5056535;28;20199;-84
2021/06/07 01:38:50;;;;;;;96.57;53.10;;;15.40;92.70;;;;;;5056044;28;20172;-84
2021/06/07 01:41:18;;;;;;;105.87;53.73;;;15.30;92.70;;;;;;5054798;28;20187;-84
2021/06/07 01:43:45;;;;;;;93.07;50.83;;;15.30;92.80;;;;;;5055971;28;20203;-84
2021/06/07 01:46:11;;;;;;;97.20;50.73;;;15.40;92.70;;;;;;5056037;28;20644;-84
2021/06/07 01:48:37;;;;;;;99.40;52.80;;;15.50;92.70;;;;;;5055833;28;20234;-84
2021/06/07 01:51:06;;;;;;;114.30;55.43;;;15.40;92.60;;;;;;5055957;28;20525;-84
2021/06/07 01:53:32;;;;;;;106.00;51.93;;;15.40;92.70;;;;;;5054435;28;20196;-84
2021/06/07 01:56:01;;;;;;;101.60;50.77;;;15.50;92.70;;;;;;5055805;28;20203;-84
2021/06/07 01:58:27;;;;;;;100.70;53.30;;;15.40;92.70;;;;;;5055787;28;20168;-84
2021/06/07 02:00:57;;;;;;;86.40;50.30;;;15.40;92.70;;;;;;5054415;28;20238;-84
2021/06/07 02:03:24;;;;;;;98.95;51.80;;;15.50;92.70;;;;;;5055510;28;20281;-84
2021/06/07 02:05:53;;;;;;;96.13;51.17;;;15.50;92.60;;;;;;5055942;28;20204;-84
2021/06/07 02:08:19;;;;;;;87.03;50.20;;;15.50;92.50;;;;;;5055464;28;20730;-84
2021/06/07 02:10:49;;;;;;;95.93;50.77;;;15.50;92.40;;;;;;5055526;28;20660;-84
2021/06/07 02:13:18;;;;;;;92.17;53.03;;;15.40;92.60;;;;;;5055402;28;20291;-84
2021/06/07 02:15:53;;;;;;;93.40;53.10;;;15.40;92.60;;;;;;5054208;28;20266;-84
2021/06/07 02:18:18;;;;;;;101.23;54.67;;;15.40;92.70;;;;;;5054189;28;20258;-84
2021/06/07 02:20:44;;;;;;;85.97;51.23;;;15.30;92.70;;;;;;5055384;28;20258;-84
2021/06/07 02:23:09;;;;;;;109.27;54.80;;;15.40;92.70;;;;;;5055302;28;20651;-84
2021/06/07 02:25:35;;;;;;;102.17;53.00;;;15.40;92.80;;;;;;5055223;28;20180;-84
2021/06/07 02:28:01;;;;;;;97.80;54.13;;;15.30;92.90;;;;;;5053860;28;20212;-84
2021/06/07 02:30:29;;;;;;;106.67;54.40;;;15.40;92.90;;;;;;5055107;28;20546;-84
2021/06/07 02:32:58;;;;;;;91.53;51.97;;;15.40;92.90;;;;;;5055660;28;20195;-84
2021/06/07 02:35:24;;;;;;;87.00;53.63;;;15.50;92.90;;;;;;5055321;28;20170;-84
2021/06/07 02:37:53;;;;;;;78.83;49.63;;;15.40;92.80;;;;;;5055313;28;20247;-84
2021/06/07 02:40:21;;;;;;;85.73;49.20;;;15.40;92.70;;;;;;5055002;28;20176;-84
2021/06/07 02:42:47;;;;;;;88.78;49.08;;;15.50;92.60;;;;;;5053842;28;20235;-84
2021/06/07 02:45:16;;;;;;;78.80;48.30;;;15.50;92.50;;;;;;5054407;28;20195;-84
2021/06/07 02:47:44;;;;;;;75.97;46.67;;;15.50;92.40;;;;;;5054745;28;20179;-84
2021/06/07 02:50:12;;;;;;;78.80;45.78;;;15.60;92.20;;;;;;5053586;28;20524;-84
2021/06/07 02:52:48;;;;;;;88.25;46.17;;;15.60;92.00;;;;;;5053415;28;20741;-84
2021/06/07 02:55:27;;;;;;;75.90;45.97;;;15.60;92.10;;;;;;5053455;28;20171;-84
2021/06/07 02:57:55;;;;;;;79.55;47.97;;;15.60;92.30;;;;;;5054985;28;20578;-84
2021/06/07 03:00:28;;;;;;;78.10;45.05;;;15.50;92.40;;;;;;5053354;28;20186;-84
2021/06/07 03:02:56;;;;;;;73.00;44.97;;;15.50;92.40;;;;;;5053135;28;20299;-84
2021/06/07 03:05:22;;;;;;;90.05;46.78;;;15.60;92.30;;;;;;5054494;28;20614;-84
2021/06/07 03:07:47;;;;;;;84.68;47.85;;;15.60;92.30;;;;;;5053082;28;20214;-84
2021/06/07 03:10:13;;;;;;;90.60;47.00;;;15.50;92.50;;;;;;5054349;28;20218;-84
2021/06/07 03:12:39;;;;;;;83.93;48.92;;;15.50;92.50;;;;;;5052978;28;20196;-84
2021/06/07 03:15:07;;;;;;;79.15;47.35;;;15.50;92.50;;;;;;5053071;28;20271;-84
2021/06/07 03:17:32;;;;;;;84.35;48.83;;;15.60;92.40;;;;;;5054149;28;20644;-84
2021/06/07 03:19:58;;;;;;;77.83;47.23;;;15.50;92.40;;;;;;5052924;28;20189;-84
2021/06/07 03:22:24;;;;;;;80.63;48.28;;;15.40;92.60;;;;;;5052828;28;20677;-84
2021/06/07 03:24:51;;;;;;;85.65;47.20;;;15.50;92.70;;;;;;5054047;28;20259;-84
2021/06/07 03:27:18;;;;;;;96.43;48.17;;;15.50;92.60;;;;;;5054093;28;20251;-84
2021/06/07 03:29:45;;;;;;;73.20;45.23;;;15.50;92.60;;;;;;5053922;28;20192;-85
2021/06/07 03:32:12;;;;;;;80.67;44.97;;;15.50;92.60;;;;;;5052927;28;20214;-84
2021/06/07 03:34:38;;;;;;;84.50;45.17;;;15.60;92.50;;;;;;5053932;28;20164;-84
2021/06/07 03:37:04;;;;;;;84.27;46.43;;;15.60;92.40;;;;;;5054138;28;20531;-84
2021/06/07 03:39:30;;;;;;;94.93;47.83;;;15.50;92.50;;;;;;5053832;28;20254;-84
2021/06/07 03:41:55;;;;;;;88.27;47.30;;;15.50;92.50;;;;;;5053760;28;20238;-83
2021/06/07 03:44:21;;;;;;;96.27;46.73;;;15.50;92.60;;;;;;5054347;28;20234;-84
2021/06/07 03:46:48;;;;;;;85.72;47.25;;;15.50;92.50;;;;;;5053763;28;20701;-84
2021/06/07 03:49:13;;;;;;;98.30;47.42;;;15.50;92.50;;;;;;5053641;28;20195;-84
2021/06/07 03:51:39;;;;;;;87.40;47.95;;;15.50;92.50;;;;;;5052351;28;20176;-83
2021/06/07 03:54:05;;;;;;;89.60;47.03;;;15.50;92.50;;;;;;5053407;28;20180;-84
2021/06/07 03:56:30;;;;;;;88.13;47.43;;;15.50;92.60;;;;;;5052245;28;20179;-84
2021/06/07 03:58:56;;;;;;;103.15;48.33;;;15.50;92.60;;;;;;5053523;28;20255;-84
2021/06/07 04:01:22;;;;;;;97.27;49.27;;;15.40;92.80;;;;;;5052083;28;20180;-83
2021/06/07 04:03:47;;;;;;;101.73;50.47;;;15.40;92.80;;;;;;5142783;22;20228;-88
2021/06/07 04:06:15;;;;;;;97.83;49.60;;;15.50;92.90;;;;;;5052147;28;20172;-88
2021/06/07 04:08:41;;;;;;;93.97;48.45;;;15.40;92.90;;;;;;5052039;28;20207;-88
2021/06/07 04:11:07;;;;;;;94.63;49.37;;;15.40;93.00;;;;;;5052187;28;20172;-88
2021/06/07 04:13:32;;;;;;;98.57;50.28;;;15.50;92.90;;;;;;5053388;28;20621;-88
2021/06/07 04:15:58;;;;;;;97.00;49.70;;;15.50;92.80;;;;;;5052087;28;20550;-88
2021/06/07 04:18:23;;;;;;;92.10;48.73;;;15.50;92.70;;;;;;5053603;28;20180;-88
2021/06/07 04:20:49;;;;;;;100.40;49.95;;;15.50;92.70;;;;;;5053288;28;20176;-88
2021/06/07 04:23:14;;;;;;;106.00;51.60;;;15.50;92.80;;;;;;5053236;28;20245;-88
2021/06/07 04:25:40;;;;;;;102.37;53.27;;;15.40;92.90;;;;;;5052024;28;20208;-88
2021/06/07 04:28:06;;;;;;;97.87;51.70;;;15.40;93.00;;;;;;5053142;28;20227;-88
2021/06/07 04:30:33;;;;;;;112.93;53.13;;;15.40;93.00;;;;;;5052228;28;20636;-88
2021/06/07 04:33:00;;;;;;;99.53;50.10;;;15.50;93.00;;;;;;5052126;28;20202;-89
2021/06/07 04:35:25;;;;;;;102.93;51.90;;;15.50;92.90;;;;;;5052025;28;20644;-88
2021/06/07 04:37:54;;;;;;;105.23;52.50;;;15.50;92.70;;;;;;5053221;28;20218;-88
2021/06/07 04:40:33;;;;;;;111.77;53.67;;;15.50;92.80;;;;;;5052347;28;20206;-88
2021/06/07 04:43:00;;;;;;;103.00;53.70;;;15.50;92.70;;;;;;5052080;28;20249;-89
2021/06/07 04:45:28;;;;;;;115.87;56.00;;;15.50;92.80;;;;;;5052095;28;20200;-88
2021/06/07 04:47:54;;;;;;;117.63;55.93;;;15.40;92.90;;;;;;5051959;28;20267;-88
2021/06/07 04:50:22;;;;;;;118.40;54.00;;;15.40;93.00;;;;;;5053069;28;20248;-88
2021/06/07 04:53:01;;;;;;;118.03;56.67;;;15.40;93.20;;;;;;5051965;28;20290;-88
2021/06/07 04:55:35;;;;;;;106.47;54.53;;;15.50;93.10;;;;;;5052982;28;20156;-88
2021/06/07 04:58:23;;;;;;;108.07;53.87;;;15.50;93.10;;;;;;5051745;28;20262;-88
2021/06/07 05:00:57;;;;;;;99.00;50.30;;;15.50;93.00;;;;;;5051741;28;20251;-88
2021/06/07 05:03:26;;;;;;;88.15;48.03;;;15.70;92.90;;;;;;5051543;28;20653;-88
2021/06/07 05:05:56;;;;;;;92.15;50.97;;;15.70;92.90;;;;;;5054574;28;20175;-88
2021/06/07 05:08:23;;;;;;;104.40;52.23;;;15.70;92.70;;;;;;5055555;28;20242;-89
2021/06/07 05:10:49;;;;;;;96.30;50.95;;;15.70;92.60;;;;;;5055498;28;20196;-88
2021/06/07 05:13:14;;;;;;;106.55;54.72;;;15.70;92.70;;;;;;5056086;28;20192;-88
2021/06/07 05:15:41;;;;;;;105.40;53.72;;;15.70;92.80;;;;;;5055396;28;20171;-88
2021/06/07 05:18:07;;;;;;;109.45;54.53;;;15.80;92.80;;;;;;5056605;28;20565;-89
2021/06/07 05:20:33;;;;;;;112.07;51.30;;;15.80;92.70;;;;;;5056636;28;20221;-88
2021/06/07 05:22:59;;;;;;;103.85;52.08;;;15.80;92.60;;;;;;5056526;28;20191;-89
2021/06/07 05:25:28;;;;;;;112.32;53.33;;;15.70;92.70;;;;;;5055283;28;20674;-89
2021/06/07 05:27:54;;;;;;;116.93;53.93;;;15.70;92.90;;;;;;5056436;28;20238;-88
2021/06/07 05:30:22;;;;;;;107.75;54.40;;;15.80;92.90;;;;;;5056405;28;20178;-88
2021/06/07 05:32:48;;;;;;;108.55;54.25;;;15.80;92.90;;;;;;5056268;28;20204;-89
2021/06/07 05:35:16;;;;;;;112.75;52.25;;;15.70;92.80;;;;;;5055133;28;20168;-88
2021/06/07 05:37:43;;;;;;;106.43;53.30;;;15.80;92.80;;;;;;5056256;28;20170;-88
2021/06/07 05:40:10;;;;;;;110.45;54.00;;;15.80;92.70;;;;;;5055085;28;20521;-88
2021/06/07 05:42:36;;;;;;;96.77;51.53;;;15.90;92.70;;;;;;5056107;28;20192;-88
2021/06/07 05:45:06;;;;;;;108.60;54.03;;;15.80;92.60;;;;;;5056146;28;20267;-88
2021/06/07 05:47:32;;;;;;;110.28;52.95;;;15.70;92.90;;;;;;5056115;28;20172;-88
2021/06/07 05:49:58;;;;;;;113.00;55.95;;;15.70;93.00;;;;;;5054799;28;20204;-89
2021/06/07 05:52:24;;;;;;;116.53;52.90;;;15.70;93.20;;;;;;5054774;28;20330;-88
2021/06/07 05:54:49;;;;;;;116.10;55.30;;;15.80;93.20;;;;;;5054677;28;20176;-89
2021/06/07 05:57:15;;;;;;;139.65;58.78;;;15.90;93.20;;;;;;5054636;28;20176;-88
2021/06/07 05:59:43;;;;;;;132.50;57.38;;;15.90;93.30;;;;;;5055928;28;20176;-89
2021/06/07 06:02:09;;;;;;;134.30;58.63;;;16.00;93.30;;;;;;5054370;28;20218;-88
2021/06/07 06:04:35;;;;;;;128.00;55.97;;;16.00;93.30;;;;;;5054569;28;20180;-89
2021/06/07 06:07:01;;;;;;;122.63;55.67;;;16.00;93.20;;;;;;5054501;28;20314;-89
2021/06/07 06:09:28;;;;;;;128.15;57.33;;;16.10;93.20;;;;;;5054443;28;20290;-88
2021/06/07 06:11:54;;;;;;;134.05;57.88;;;16.10;93.20;;;;;;5054273;28;20229;-88
2021/06/07 06:14:19;;;;;;;112.70;55.58;;;16.00;93.30;;;;;;5055859;28;20173;-88
2021/06/07 06:16:45;;;;;;;107.00;53.63;;;16.20;93.40;;;;;;5055358;28;20667;-89
2021/06/07 06:19:11;;;;;;;118.50;53.60;;;16.20;93.30;;;;;;5054244;28;20270;-88
2021/06/07 06:21:39;;;;;;;105.75;54.10;;;16.20;93.30;;;;;;5054186;28;20666;-88
2021/06/07 06:24:07;;;;;;;109.03;52.97;;;16.20;93.40;;;;;;5054114;28;20571;-88
2021/06/07 06:26:32;;;;;;;101.82;54.38;;;16.30;93.40;;;;;;5055310;28;20172;-88
2021/06/07 06:28:58;;;;;;;102.97;51.70;;;16.30;93.40;;;;;;5053985;28;20199;-87
2021/06/07 06:31:24;;;;;;;103.60;52.97;;;16.20;93.30;;;;;;5055254;28;20195;-87
2021/06/07 06:33:50;;;;;;;107.75;50.13;;;16.30;93.30;;;;;;5055097;28;20195;-88
2021/06/07 06:36:16;;;;;;;107.22;51.85;;;16.40;93.20;;;;;;5055677;28;20535;-88
2021/06/07 06:38:42;;;;;;;103.00;49.63;;;16.30;93.20;;;;;;5054272;28;20180;-88
2021/06/07 06:41:08;;;;;;;104.70;51.08;;;16.30;93.40;;;;;;5053867;28;20176;-87
2021/06/07 06:43:34;;;;;;;109.25;52.42;;;16.30;93.40;;;;;;5055387;28;20255;-88
2021/06/07 06:46:00;;;;;;;117.00;54.45;;;16.30;93.40;;;;;;5055543;28;20183;-88
2021/06/07 06:48:27;;;;;;;93.75;51.15;;;16.40;93.40;;;;;;5053696;28;20549;-87
2021/06/07 06:50:53;;;;;;;93.20;51.08;;;16.40;93.40;;;;;;5055311;28;20168;-88
2021/06/07 06:53:20;;;;;;;110.13;53.65;;;16.50;93.40;;;;;;5054504;28;20199;-88
2021/06/07 06:55:48;;;;;;;96.90;49.85;;;16.40;93.30;;;;;;5053877;28;20172;-88
2021/06/07 06:58:13;;;;;;;104.15;50.35;;;16.30;93.40;;;;;;5055488;28;20550;-88
2021/06/07 07:00:40;;;;;;;96.60;49.00;;;16.40;93.50;;;;;;5054670;28;20179;-88
2021/06/07 07:03:15;;;;;;;105.80;49.17;;;16.40;93.50;;;;;;5053429;28;20230;-88
2021/06/07 07:05:42;;;;;;;83.43;48.03;;;16.50;93.50;;;;;;5055099;28;20515;-88
2021/06/07 07:08:09;;;;;;;80.97;44.88;;;16.50;93.50;;;;;;5055073;28;20253;-88
2021/06/07 07:10:37;;;;;;;75.10;43.63;;;16.60;93.50;;;;;;5053831;28;20259;-88
2021/06/07 07:13:03;;;;;;;70.65;42.47;;;16.60;93.40;;;;;;5053354;28;20295;-88
2021/06/07 07:15:28;;;;;;;66.13;41.78;;;16.70;93.30;;;;;;5053152;28;20176;-88
2021/06/07 07:17:54;;;;;;;86.00;41.88;;;16.70;93.30;;;;;;5053078;28;20179;-88
2021/06/07 07:20:20;;;;;;;87.85;43.03;;;16.70;93.20;;;;;;5053095;28;20176;-88
2021/06/07 07:22:46;;;;;;;77.80;40.85;;;16.60;93.20;;;;;;5052919;28;20283;-88
2021/06/07 07:25:12;;;;;;;64.43;40.90;;;16.70;93.30;;;;;;5054275;28;20179;-88
2021/06/07 07:27:39;;;;;;;71.97;41.75;;;16.70;93.20;;;;;;5052730;28;20176;-88
2021/06/07 07:30:10;;;;;;;82.38;41.95;;;16.80;93.20;;;;;;5052764;28;20337;-88
2021/06/07 07:32:37;;;;;;;77.20;40.80;;;16.70;93.20;;;;;;5052757;28;20199;-88
2021/06/07 07:35:05;;;;;;;72.53;41.25;;;16.70;93.20;;;;;;5052811;28;20172;-89
2021/06/07 07:37:30;;;;;;;78.28;41.72;;;16.70;93.20;;;;;;5052851;28;20168;-88
2021/06/07 07:39:56;;;;;;;85.45;44.55;;;16.70;93.20;;;;;;5053974;28;20718;-89
2021/06/07 07:42:22;;;;;;;79.45;44.63;;;16.80;93.20;;;;;;5054171;28;20192;-89
2021/06/07 07:44:48;;;;;;;75.60;41.97;;;16.80;93.20;;;;;;5052778;28;20271;-89
2021/06/07 07:47:14;;;;;;;89.85;45.80;;;16.80;93.20;;;;;;5052936;28;20176;-89
2021/06/07 07:49:40;;;;;;;77.57;42.00;;;16.80;93.40;;;;;;5052509;28;20208;-89
2021/06/07 07:52:07;;;;;;;88.18;45.20;;;16.90;93.30;;;;;;5053703;28;20263;-90
2021/06/07 07:54:34;;;;;;;72.18;43.20;;;16.90;93.20;;;;;;5052470;28;20295;-89
2021/06/07 07:57:00;;;;;;;85.00;46.17;;;16.90;93.20;;;;;;5052454;28;20266;-90
2021/06/07 07:59:26;;;;;;;75.78;42.60;;;17.00;93.20;;;;;;5052462;28;20172;-89
2021/06/07 08:01:51;;;;;;;79.93;41.30;;;17.00;93.10;;;;;;5053609;28;20182;-89
2021/06/07 08:04:17;;;;;;;80.43;42.78;;;17.10;93.10;;;;;;5053399;28;20204;-89
2021/06/07 08:06:44;;;;;;;79.03;42.38;;;17.10;92.90;;;;;;5052410;28;20561;-89
2021/06/07 08:09:11;;;;;;;86.47;46.08;;;17.20;92.80;;;;;;5053822;28;20223;-89
2021/06/07 08:11:37;;;;;;;95.50;46.53;;;17.20;92.70;;;;;;5053786;28;20242;-90
2021/06/07 08:14:04;;;;;;;111.15;53.17;;;17.20;92.70;;;;;;5052656;28;20196;-90
2021/06/07 08:16:29;;;;;;;108.18;56.67;;;17.20;92.60;;;;;;5052268;28;20172;-87
2021/06/07 08:18:55;;;;;;;111.18;56.05;;;17.30;92.40;;;;;;5052190;28;20230;-88
2021/06/07 08:21:21;;;;;;;110.78;58.67;;;17.30;92.20;;;;;;5052438;28;20184;-88
2021/06/07 08:23:47;;;;;;;101.75;56.72;;;17.20;92.30;;;;;;5052013;28;20195;-88
2021/06/07 08:26:13;;;;;;;105.28;54.00;;;17.20;92.40;;;;;;5052789;28;20301;-87
2021/06/07 08:28:39;;;;;;;99.72;52.30;;;17.30;92.40;;;;;;5052992;28;20270;-87
2021/06/07 08:31:04;;;;;;;100.97;53.38;;;17.30;92.40;;;;;;5051942;28;20647;-87
2021/06/07 08:33:31;;;;;;;94.97;48.55;;;17.30;92.30;;;;;;5051916;28;20610;-88
2021/06/07 08:35:58;;;;;;;98.55;50.10;;;17.30;92.30;;;;;;5052235;28;20557;-87
2021/06/07 08:38:25;;;;;;;85.55;47.88;;;17.30;92.30;;;;;;5051928;28;20237;-88
2021/06/07 08:40:53;;;;;;;80.35;44.28;;;17.40;92.40;;;;;;5055867;28;20172;-87
2021/06/07 08:43:20;;;;;;;86.35;44.00;;;17.40;92.30;;;;;;5056012;28;20200;-87
2021/06/07 08:45:47;;;;;;;79.85;43.38;;;17.50;92.20;;;;;;5057242;28;20250;-87
2021/06/07 08:48:13;;;;;;;86.25;45.25;;;17.50;92.20;;;;;;5055934;28;20605;-87
2021/06/07 08:50:39;;;;;;;82.50;47.08;;;17.50;92.10;;;;;;5055908;28;20183;-87
2021/06/07 08:53:05;;;;;;;88.65;47.65;;;17.40;92.00;;;;;;5055853;28;20195;-87
2021/06/07 08:55:33;;;;;;;86.30;48.45;;;17.40;92.00;;;;;;5056291;28;20172;-87
2021/06/07 08:57:59;;;;;;;102.78;51.88;;;17.40;92.00;;;;;;5055822;28;20226;-87
2021/06/07 09:00:28;;;;;;;102.57;53.75;;;17.30;92.10;;;;;;5057059;28;20161;-87
2021/06/07 09:03:09;;;;;;;99.50;52.40;;;17.30;92.40;;;;;;5055739;28;20774;-86
2021/06/07 09:05:36;;;;;;;107.13;55.70;;;17.30;92.40;;;;;;5056960;28;20213;-87
2021/06/07 09:08:07;;;;;;;108.15;56.05;;;17.20;92.50;;;;;;5055614;28;20183;-89
2021/06/07 09:10:37;;;;;;;109.25;58.47;;;17.20;92.50;;;;;;5055536;28;20781;-90
2021/06/07 09:13:05;;;;;;;116.55;61.20;;;17.10;92.30;;;;;;5055884;28;20204;-89
2021/06/07 09:15:41;;;;;;;109.15;57.95;;;17.10;92.40;;;;;;5055469;28;20175;-89
2021/06/07 09:18:14;;;;;;;97.88;55.00;;;17.10;92.40;;;;;;5055523;28;20164;-89
2021/06/07 09:20:41;;;;;;;86.63;49.40;;;17.10;92.20;;;;;;5056697;28;20168;-89
2021/06/07 09:23:08;;;;;;;67.80;42.85;;;17.20;91.90;;;;;;5055407;28;20191;-89
2021/06/07 09:25:40;;;;;;;68.50;42.35;;;17.20;91.70;;;;;;5056454;28;20540;-89
2021/06/07 09:28:22;;;;;;;65.35;40.10;;;17.20;91.40;;;;;;5056470;28;20187;-89
2021/06/07 09:30:54;;;;;;;68.13;41.72;;;17.20;91.10;;;;;;5055195;28;20167;-89
2021/06/07 09:33:24;;;;;;;64.75;39.90;;;17.20;91.10;;;;;;5055159;28;20569;-89
2021/06/07 09:36:29;;;;;;;58.17;38.90;;;17.20;91.00;;;;;;5055155;28;20212;-89
2021/06/07 09:39:00;;;;;;;68.30;42.40;;;17.20;90.90;;;;;;5015498;28;20278;-89
2021/06/07 09:41:29;;;;;;;73.78;45.50;;;17.10;90.90;;;;;;5056516;28;20168;-90
2021/06/07 09:44:02;;;;;;;72.25;45.67;;;17.10;91.20;;;;;;5055200;28;20786;-90
2021/06/07 09:46:30;;;;;;;76.03;45.50;;;17.10;91.10;;;;;;5055749;28;20647;-89
2021/06/07 09:49:14;;;;;;;79.80;46.97;;;17.00;91.00;;;;;;5056264;28;20192;-89
2021/06/07 09:51:50;;;;;;;77.25;43.95;;;17.00;91.10;;;;;;5054486;28;20214;-89
2021/06/07 09:54:16;;;;;;;69.05;43.38;;;17.10;91.10;;;;;;5056054;28;20267;-89
2021/06/07 09:56:56;;;;;;;70.20;44.80;;;17.10;90.80;;;;;;5055013;28;20178;-89
2021/06/07 09:59:29;;;;;;;63.88;43.72;;;17.10;90.80;;;;;;5054715;28;20210;-90
2021/06/07 10:01:57;;;;;;;62.97;43.83;;;17.10;90.80;;;;;;5056060;28;20180;-90
2021/06/07 10:04:51;;;;;;;62.28;42.28;;;17.00;91.00;;;;;;5145039;22;20223;-86
2021/06/07 10:07:18;;;;;;;59.17;42.60;;;16.90;91.10;;;;;;5054589;28;20160;-87
2021/06/07 10:10:13;;;;;;;50.42;40.70;;;16.80;91.50;;;;;;5055635;28;20210;-86
2021/06/07 10:12:39;;;;;;;47.90;40.17;;;16.90;91.60;;;;;;5054345;28;20249;-87
2021/06/07 10:15:07;;;;;;;47.72;40.72;;;16.90;91.40;;;;;;5054334;28;20176;-87
2021/06/07 10:17:33;;;;;;;44.65;36.72;;;16.90;91.50;;;;;;5054353;28;20172;-87
2021/06/07 10:22:44;;;;;;;52.35;40.28;;;16.90;91.60;;;;;;5024819;28;20299;-86
2021/06/07 10:25:11;;;;;;;52.40;40.85;;;17.00;91.60;;;;;;5055380;28;20195;-86
2021/06/07 10:27:37;;;;;;;51.60;41.60;;;17.10;91.50;;;;;;5054042;28;20179;-86
2021/06/07 10:30:12;;;;;;;68.43;43.80;;;17.20;91.60;;;;;;5053964;28;20203;-87
2021/06/07 10:32:38;;;;;;;63.60;42.95;;;17.20;91.20;;;;;;5055314;28;20691;-86
2021/06/07 10:35:05;;;;;;;64.32;45.55;;;17.30;91.10;;;;;;5053991;28;20180;-87
2021/06/07 10:37:32;;;;;;;61.78;45.88;;;17.10;90.90;;;;;;5055108;28;20229;-86
2021/06/07 10:40:19;;;;;;;74.63;47.38;;;17.20;91.10;;;;;;5053969;28;20334;-86
2021/06/07 10:43:05;;;;;;;71.97;48.20;;;17.20;91.30;;;;;;5053672;28;20188;-86
2021/06/07 10:45:36;;;;;;;66.30;46.75;;;17.30;91.50;;;;;;5053756;28;20229;-90
2021/06/07 10:48:03;;;;;;;67.40;46.42;;;17.30;90.90;;;;;;5054149;28;20172;-89
2021/06/07 10:50:32;;;;;;;66.03;46.45;;;17.50;91.00;;;;;;5054363;28;20266;-89
2021/06/07 10:53:01;;;;;;;64.18;45.08;;;17.70;91.00;;;;;;5053658;28;20188;-89
2021/06/07 10:55:30;;;;;;;61.10;44.40;;;17.80;90.70;;;;;;5053625;28;20310;-89
2021/06/07 10:57:57;;;;;;;62.78;44.00;;;18.00;90.10;;;;;;5054398;28;20180;-89
2021/06/07 11:00:29;;;;;;;64.68;43.80;;;18.00;89.30;;;;;;5053613;28;20267;-89
2021/06/07 11:03:02;;;;;;;67.38;44.10;;;17.90;89.10;;;;;;5052631;28;20598;-89
2021/06/07 11:05:32;;;;;;;54.72;42.42;;;18.10;89.30;;;;;;5054728;28;20172;-88
2021/06/07 11:08:16;;;;;;;61.33;42.50;;;18.00;88.50;;;;;;5052949;28;20172;-87
2021/06/07 11:10:47;;;;;;;57.28;40.92;;;17.90;88.50;;;;;;5054580;28;20160;-87
2021/06/07 11:13:18;;;;;;;53.55;42.22;;;17.90;88.30;;;;;;5054738;28;20180;-87
2021/06/07 11:15:55;;;;;;;60.10;42.25;;;18.10;88.70;;;;;;5053269;28;20613;-89
2021/06/07 11:18:37;;;;;;;51.50;40.42;;;18.20;88.50;;;;;;5053631;28;20172;-88
2021/06/07 11:21:05;;;;;;;51.25;38.35;;;18.30;88.20;;;;;;5053163;28;20182;-89
2021/06/07 11:23:42;;;;;;;47.95;36.38;;;18.40;87.70;;;;;;5053187;28;20204;-91
2021/06/07 11:26:10;;;;;;;57.45;41.05;;;18.30;86.30;;;;;;5053215;28;20163;-90
2021/06/07 11:28:42;;;;;;;48.42;38.45;;;18.10;86.90;;;;;;5053064;28;20713;-89
2021/06/07 11:31:19;;;;;;;45.55;36.10;;;18.20;87.00;;;;;;5053258;28;20218;-90
2021/06/07 11:33:54;;;;;;;46.85;36.63;;;18.30;87.00;;;;;;5052879;28;20195;-89
2021/06/07 11:36:40;;;;;;;49.95;36.42;;;18.40;87.30;;;;;;5054088;28;20246;-89
2021/06/07 11:39:08;;;;;;;45.67;36.17;;;18.50;86.50;;;;;;5052806;28;20183;-89
2021/06/07 11:41:59;;;;;;;47.72;36.53;;;18.50;86.70;;;;;;5053462;28;20176;-89
2021/06/07 11:44:46;;;;;;;48.45;35.10;;;18.40;87.10;;;;;;5052639;28;20192;-88
2021/06/07 11:47:22;;;;;;;48.00;35.85;;;18.30;86.90;;;;;;5054489;28;20168;-90
2021/06/07 11:49:57;;;;;;;46.47;35.88;;;18.40;87.20;;;;;;5053944;28;20282;-90
2021/06/07 11:52:32;;;;;;;41.92;35.75;;;18.70;87.30;;;;;;5052613;28;20206;-90
2021/06/07 11:55:30;;;;;;;42.33;33.03;;;18.90;87.10;;;;;;5035941;28;20632;-90
2021/06/07 11:58:07;;;;;;;47.17;37.20;;;19.00;85.50;;;;;;5052556;28;20172;-90
2021/06/07 12:00:39;;;;;;;39.65;33.20;;;18.80;85.00;;;;;;5052599;28;20176;-89
2021/06/07 12:03:07;;;;;;;47.03;36.17;;;18.80;84.40;;;;;;5053495;28;20203;-89
2021/06/07 12:05:33;;;;;;;49.33;37.65;;;18.80;84.90;;;;;;5052515;28;20207;-89
2021/06/07 12:08:08;;;;;;;49.35;37.35;;;19.10;86.20;;;;;;5053600;28;20182;-89
2021/06/07 12:10:36;;;;;;;46.05;36.65;;;19.30;84.70;;;;;;5053728;28;20156;-89
2021/06/07 12:13:19;;;;;;;39.17;34.05;;;19.60;84.60;;;;;;5052335;28;20202;-89
2021/06/07 12:15:50;;;;;;;40.60;33.10;;;19.50;82.70;;;;;;5053533;28;20230;-89
2021/06/07 12:18:29;;;;;;;37.22;33.03;;;19.90;83.40;;;;;;5053587;28;20647;-89
2021/06/07 12:20:59;;;;;;;38.90;32.30;;;20.00;82.50;;;;;;5052393;28;20226;-89
2021/06/07 12:23:30;;;;;;;39.58;30.05;;;19.90;81.60;;;;;;5053426;28;20553;-89
2021/06/07 12:28:36;;;;;;;33.30;28.92;;;19.50;82.70;;;;;;5053564;28;20241;-89
2021/06/07 12:31:02;;;;;;;29.52;25.50;;;19.70;83.60;;;;;;5052233;28;20552;-89
2021/06/07 12:33:37;;;;;;;28.98;25.58;;;20.10;82.60;;;;;;5053711;28;20192;-89
2021/06/07 12:36:05;;;;;;;30.58;25.33;;;20.20;81.50;;;;;;5052926;28;20171;-89